Terminal Aerodrome Forecast
Issued by NWS

Home | Current Version | Previous Version | Text Only | Print | Product List | Glossary On
Versions: 1 2 3 4 5 6 7 8 9 10 11 12 13 14 15 16 17 18
000
FTUS44 KJAN 181720
TAFHKS
TAF
KHKS 181720Z 1818/1918 10008KT P6SM VCSH OVC011
     FM181900 13006KT 5SM TSRA OVC020CB
     FM190300 15009KT P6SM VCSH BKN007 OVC025
     FM190800 20006KT P6SM OVC003
     FM191500 22005KT 4SM BR OVC007=

USA.gov is the U.S. government's official web portal to all federal, state and local government web resources and services.